createdAt,value
2018-03-24T00:02:05.557Z,10.18
2018-03-24T00:04:33.074Z,12.60
2018-03-24T00:07:00.549Z,9.65
2018-03-24T00:09:28.070Z,10.82
2018-03-24T00:11:55.567Z,11.88
2018-03-24T00:14:25.029Z,11.45
2018-03-24T00:16:52.513Z,8.45
2018-03-24T00:19:20.004Z,13.45
2018-03-24T00:21:47.476Z,9.82
2018-03-24T00:24:15.978Z,9.73
2018-03-24T00:26:43.469Z,10.77
2018-03-24T00:29:11.033Z,10.50
2018-03-24T00:31:38.508Z,9.85
2018-03-24T00:34:06.014Z,12.13
2018-03-24T00:36:33.541Z,12.40
2018-03-24T00:39:01.034Z,11.55
2018-03-24T00:41:28.525Z,14.35
2018-03-24T00:43:56.005Z,10.93
2018-03-24T00:46:23.500Z,12.25
2018-03-24T00:48:50.990Z,12.98
2018-03-24T00:51:18.507Z,11.65
2018-03-24T00:53:45.997Z,10.68
2018-03-24T00:56:13.501Z,11.27
2018-03-24T00:58:40.997Z,10.00
2018-03-24T01:01:08.513Z,10.75
2018-03-24T01:03:36.010Z,9.85
2018-03-24T01:06:03.509Z,11.52
2018-03-24T01:08:30.753Z,10.93
2018-03-24T01:10:58.256Z,10.88
2018-03-24T01:13:25.742Z,12.18
2018-03-24T01:15:53.246Z,11.25
2018-03-24T01:18:21.701Z,10.45
2018-03-24T01:20:49.209Z,8.88
2018-03-24T01:23:16.685Z,9.88
2018-03-24T01:25:45.191Z,11.12
2018-03-24T01:28:12.669Z,10.63
2018-03-24T01:30:40.185Z,10.65
2018-03-24T01:33:07.661Z,9.60
2018-03-24T01:35:35.174Z,9.45
2018-03-24T01:38:02.657Z,12.88
2018-03-24T01:40:30.168Z,8.80
2018-03-24T01:42:57.674Z,10.52
2018-03-24T01:45:25.198Z,10.27
2018-03-24T01:47:52.686Z,11.98
2018-03-24T01:50:21.110Z,10.38
2018-03-24T01:52:48.642Z,9.07
2018-03-24T01:55:16.125Z,10.43
2018-03-24T01:57:43.648Z,11.60
2018-03-24T02:00:11.136Z,9.32
2018-03-24T02:02:38.656Z,11.02
2018-03-24T02:05:05.947Z,8.63
2018-03-24T02:07:33.433Z,11.60
2018-03-24T02:10:00.925Z,10.80
2018-03-24T02:12:28.417Z,9.77
2018-03-24T02:14:55.922Z,8.52
2018-03-24T02:17:23.414Z,10.13
2018-03-24T02:19:50.726Z,12.35
2018-03-24T02:22:18.233Z,11.05
2018-03-24T02:24:47.211Z,9.98
2018-03-24T02:27:14.730Z,11.55
2018-03-24T02:29:42.224Z,11.50
2018-03-24T02:32:09.718Z,10.30
2018-03-24T02:34:37.223Z,11.30
2018-03-24T02:37:04.521Z,11.60
2018-03-24T02:39:32.026Z,11.23
2018-03-24T02:41:59.506Z,9.13
2018-03-24T02:44:27.003Z,12.05
2018-03-24T02:46:54.530Z,12.35
2018-03-24T02:49:22.020Z,11.10
2018-03-24T02:51:49.549Z,10.88
2018-03-24T02:54:17.042Z,12.18
2018-03-24T02:56:44.578Z,13.00
2018-03-24T02:59:12.054Z,9.20
2018-03-24T03:01:39.538Z,10.85
2018-03-24T03:04:07.040Z,13.45
2018-03-24T03:06:34.531Z,12.65
2018-03-24T03:09:02.041Z,10.68
2018-03-24T03:11:29.534Z,12.82
2018-03-24T03:13:57.049Z,12.82
2018-03-24T03:16:24.535Z,15.82
2018-03-24T03:18:52.029Z,15.45
2018-03-24T03:21:19.529Z,12.18
2018-03-24T03:23:47.008Z,14.27
2018-03-24T03:26:15.485Z,11.23
2018-03-24T03:28:42.977Z,15.75
2018-03-24T03:31:17.823Z,12.88
2018-03-24T03:33:45.325Z,11.85
2018-03-24T03:36:12.810Z,11.70
2018-03-24T03:38:40.325Z,12.60
2018-03-24T03:41:07.810Z,12.65
2018-03-24T03:43:37.234Z,15.57
2018-03-24T03:46:04.712Z,12.68
2018-03-24T03:48:34.150Z,13.13
2018-03-24T03:51:01.647Z,14.27
2018-03-24T03:53:29.142Z,11.20
2018-03-24T03:55:56.638Z,13.77
2018-03-24T03:58:24.114Z,14.00
2018-03-24T04:00:51.654Z,11.90
2018-03-24T04:03:19.138Z,11.48
2018-03-24T04:05:46.638Z,13.80
2018-03-24T04:08:14.123Z,13.80
2018-03-24T04:10:41.597Z,13.05
2018-03-24T04:13:10.102Z,14.13
2018-03-24T04:15:37.586Z,12.43
2018-03-24T04:18:07.019Z,16.33
2018-03-24T04:20:34.505Z,14.87
2018-03-24T04:23:02.010Z,18.45
2018-03-24T04:25:29.503Z,15.55
2018-03-24T04:27:56.989Z,16.20
2018-03-24T04:30:24.502Z,18.23
2018-03-24T04:32:52.037Z,16.95
2018-03-24T04:35:19.543Z,18.25
2018-03-24T04:37:47.037Z,19.12
2018-03-24T04:40:14.547Z,18.87
2018-03-24T04:42:42.033Z,21.20
2018-03-24T04:45:10.486Z,17.45
2018-03-24T04:47:38.987Z,15.80
2018-03-24T04:50:06.493Z,20.92
2018-03-24T04:52:34.002Z,16.25
2018-03-24T04:55:01.301Z,20.15
2018-03-24T04:57:28.818Z,19.20
2018-03-24T04:59:57.330Z,17.73
2018-03-24T05:02:24.820Z,18.45
2018-03-24T05:04:52.325Z,19.42
2018-03-24T05:07:19.822Z,26.08
2018-03-24T05:09:47.325Z,17.10
2018-03-24T05:12:14.823Z,21.05
2018-03-24T05:14:42.314Z,20.23
2018-03-24T05:17:09.644Z,22.23
2018-03-24T05:19:37.134Z,20.65
2018-03-24T05:22:05.661Z,18.65
2018-03-24T05:24:33.149Z,19.73
2018-03-24T05:27:01.661Z,19.17
2018-03-24T05:29:29.170Z,22.67
2018-03-24T05:31:56.659Z,20.10
2018-03-24T05:34:24.166Z,19.65
2018-03-24T05:36:52.609Z,18.73
2018-03-24T05:39:20.123Z,20.60
2018-03-24T05:41:47.625Z,21.33
2018-03-24T05:44:15.104Z,18.52
2018-03-24T05:46:42.620Z,20.70
2018-03-24T05:49:10.116Z,18.58
2018-03-24T05:51:37.901Z,18.67
2018-03-24T05:54:05.389Z,17.05
2018-03-24T05:56:32.895Z,21.45
2018-03-24T05:59:00.409Z,20.98
2018-03-24T06:01:27.925Z,21.40
2018-03-24T06:03:55.443Z,18.60
2018-03-24T06:06:22.934Z,17.37
2018-03-24T06:08:50.210Z,21.58
2018-03-24T06:11:17.701Z,19.58
2018-03-24T06:13:45.194Z,18.67
2018-03-24T06:16:12.701Z,21.95
2018-03-24T06:18:40.190Z,22.40
2018-03-24T06:21:07.805Z,19.23
2018-03-24T06:23:35.304Z,20.10
2018-03-24T06:26:02.817Z,19.30
2018-03-24T06:28:30.121Z,17.87
2018-03-24T06:30:58.454Z,14.13
2018-03-24T06:33:25.824Z,18.08
2018-03-24T06:35:53.741Z,17.50
2018-03-24T06:38:21.254Z,15.75
2018-03-24T06:40:48.741Z,18.40
2018-03-24T06:43:16.236Z,14.48
2018-03-24T06:45:43.861Z,15.73
2018-03-24T06:48:11.389Z,13.45
2018-03-24T06:50:38.889Z,12.75
2018-03-24T06:53:06.190Z,14.73
2018-03-24T06:55:33.690Z,9.43
2018-03-24T06:58:01.174Z,10.93
2018-03-24T07:00:29.680Z,14.40
2018-03-24T07:02:57.160Z,11.85
2018-03-24T07:05:24.661Z,11.70
2018-03-24T07:07:52.162Z,10.50
2018-03-24T07:10:19.668Z,8.45
2018-03-24T07:12:47.147Z,10.02
2018-03-24T07:15:14.664Z,11.82
2018-03-24T07:17:42.147Z,9.00
2018-03-24T07:20:09.659Z,8.13
2018-03-24T07:22:37.148Z,9.35
2018-03-24T07:25:04.627Z,9.95
2018-03-24T07:27:32.126Z,8.48
2018-03-24T07:29:59.609Z,9.50
2018-03-24T07:32:27.108Z,8.10
2018-03-24T07:34:54.597Z,8.50
2018-03-24T07:37:23.113Z,8.32
2018-03-24T07:39:50.599Z,7.78
2018-03-24T07:42:18.089Z,7.22
2018-03-24T07:44:45.577Z,7.35
2018-03-24T07:47:13.097Z,7.10
2018-03-24T07:49:40.573Z,6.05
2018-03-24T07:52:09.060Z,6.87
2018-03-24T07:54:36.544Z,6.72
2018-03-24T07:57:04.033Z,7.15
2018-03-24T07:59:31.510Z,5.62
2018-03-24T08:01:59.011Z,5.15
2018-03-24T08:04:26.484Z,5.93
2018-03-24T08:06:53.980Z,4.87
2018-03-24T08:09:21.452Z,4.40
2018-03-24T08:11:48.955Z,5.22
2018-03-24T08:14:17.433Z,4.10
2018-03-24T08:16:44.906Z,4.03
2018-03-24T08:19:12.398Z,4.70
2018-03-24T08:21:39.886Z,5.95
2018-03-24T08:24:07.364Z,4.22
2018-03-24T08:26:34.866Z,4.55
2018-03-24T08:29:02.336Z,4.32
2018-03-24T08:31:29.834Z,3.97
2018-03-24T08:33:57.308Z,3.87
2018-03-24T08:36:24.803Z,4.97
2018-03-24T08:38:52.284Z,4.05
2018-03-24T08:41:19.781Z,4.20
2018-03-24T08:43:47.253Z,4.55
2018-03-24T08:46:14.741Z,4.68
2018-03-24T08:48:42.213Z,4.55
2018-03-24T08:51:09.708Z,5.03
2018-03-24T08:53:37.189Z,4.97
2018-03-24T08:56:06.629Z,4.57
2018-03-24T08:58:34.113Z,4.82
2018-03-24T09:01:01.609Z,5.57
2018-03-24T09:03:29.113Z,4.57
2018-03-24T09:05:56.773Z,4.30
2018-03-24T09:08:24.269Z,4.55
2018-03-24T09:10:51.755Z,3.75
2018-03-24T09:13:19.249Z,4.97
2018-03-24T09:15:46.744Z,4.87
2018-03-24T09:18:14.234Z,4.15
2018-03-24T09:20:41.725Z,4.65
2018-03-24T09:23:09.197Z,5.40
2018-03-24T09:25:36.694Z,4.40
2018-03-24T09:28:04.220Z,6.07
2018-03-24T09:30:31.866Z,4.22
2018-03-24T09:32:59.338Z,4.20
2018-03-24T09:35:26.837Z,4.47
2018-03-24T09:37:54.334Z,5.10
2018-03-24T09:40:21.849Z,4.72
2018-03-24T09:42:49.342Z,5.12
2018-03-24T09:45:17.827Z,4.00
2018-03-24T09:47:45.302Z,5.93
2018-03-24T09:50:12.801Z,3.65
2018-03-24T09:52:40.392Z,3.97
2018-03-24T09:55:07.969Z,4.37
2018-03-24T09:57:35.445Z,3.85
2018-03-24T10:00:04.025Z,3.83
2018-03-24T10:02:31.513Z,4.90
2018-03-24T10:04:58.993Z,4.10
2018-03-24T10:07:26.492Z,5.82
2018-03-24T10:09:53.961Z,4.20
2018-03-24T10:12:21.432Z,4.15
2018-03-24T10:14:48.920Z,5.07
2018-03-24T10:17:16.402Z,4.30
2018-03-24T10:19:43.897Z,4.78
2018-03-24T10:22:17.025Z,4.00
2018-03-24T10:24:44.512Z,4.72
2018-03-24T10:27:11.830Z,4.60
2018-03-24T10:29:40.242Z,5.30
2018-03-24T10:32:08.161Z,4.68
2018-03-24T10:34:35.633Z,6.15
2018-03-24T10:37:03.140Z,6.22
2018-03-24T10:39:30.612Z,5.00
2018-03-24T10:41:58.106Z,4.95
2018-03-24T10:44:25.618Z,5.25
2018-03-24T10:46:53.257Z,4.70
2018-03-24T10:49:20.752Z,5.37
2018-03-24T10:51:48.248Z,5.30
2018-03-24T10:54:15.749Z,7.45
2018-03-24T10:56:43.229Z,5.93
2018-03-24T10:59:10.959Z,6.05
2018-03-24T11:01:38.471Z,7.80
2018-03-24T11:04:05.982Z,7.53
2018-03-24T11:06:33.656Z,10.85
2018-03-24T11:09:01.140Z,7.55
2018-03-24T11:11:28.644Z,8.07
2018-03-24T11:13:56.128Z,9.05
2018-03-24T11:16:23.603Z,8.13
2018-03-24T11:18:51.109Z,7.43
2018-03-24T11:21:18.590Z,7.85
2018-03-24T11:23:46.081Z,7.35
2018-03-24T11:26:13.562Z,8.30
2018-03-24T11:28:41.062Z,7.12
2018-03-24T11:31:08.546Z,8.55
2018-03-24T11:33:36.038Z,8.20
2018-03-24T11:36:03.550Z,8.50
2018-03-24T11:38:31.049Z,9.07
2018-03-24T11:40:58.541Z,9.25
2018-03-24T11:43:26.036Z,6.87
2018-03-24T11:45:53.534Z,7.93
2018-03-24T11:48:21.013Z,7.25
2018-03-24T11:50:48.492Z,8.00
2018-03-24T11:53:15.993Z,17.12
2018-03-24T11:55:43.473Z,8.23
2018-03-24T11:58:12.911Z,9.25
2018-03-24T12:00:41.329Z,7.03
2018-03-24T12:03:08.828Z,7.37
2018-03-24T12:05:36.306Z,8.80
2018-03-24T12:08:03.789Z,9.27
2018-03-24T12:10:31.294Z,7.53
2018-03-24T12:12:58.767Z,8.75
2018-03-24T12:15:28.193Z,7.03
2018-03-24T12:17:55.673Z,9.10
2018-03-24T12:20:23.166Z,7.95
2018-03-24T12:22:50.656Z,7.32
2018-03-24T12:25:18.160Z,7.80
2018-03-24T12:27:45.637Z,8.95
2018-03-24T12:30:13.114Z,8.70
2018-03-24T12:32:40.623Z,6.78
2018-03-24T12:35:08.115Z,8.10
2018-03-24T12:37:35.661Z,8.02
2018-03-24T12:40:03.010Z,9.20
2018-03-24T12:42:30.222Z,8.27
2018-03-24T12:44:57.416Z,9.37
2018-03-24T12:47:24.602Z,8.97
2018-03-24T12:49:51.814Z,12.53
2018-03-24T12:52:19.012Z,12.57
2018-03-24T12:54:46.236Z,9.50
2018-03-24T12:57:13.425Z,9.43
2018-03-24T12:59:40.621Z,11.77
2018-03-24T13:02:07.837Z,12.37
2018-03-24T13:04:35.031Z,9.50
2018-03-24T13:07:02.247Z,11.13
2018-03-24T13:09:29.441Z,9.53
2018-03-24T13:11:56.456Z,12.87
2018-03-24T13:14:23.664Z,11.57
2018-03-24T13:16:50.853Z,9.80
2018-03-24T13:19:18.065Z,10.87
2018-03-24T13:21:45.261Z,11.03
2018-03-24T13:24:12.474Z,10.43
2018-03-24T13:26:39.670Z,9.13
2018-03-24T13:29:06.885Z,10.03
2018-03-24T13:31:34.090Z,14.93
2018-03-24T13:34:02.029Z,10.33
2018-03-24T13:36:29.237Z,13.07
2018-03-24T13:38:56.426Z,10.63
2018-03-24T13:41:23.659Z,8.97
2018-03-24T13:43:51.022Z,9.57
2018-03-24T13:46:18.246Z,10.80
2018-03-24T13:48:46.397Z,9.00
2018-03-24T13:51:13.612Z,8.93
2018-03-24T13:53:40.801Z,9.93
2018-03-24T13:56:07.994Z,8.77
2018-03-24T13:58:35.209Z,9.33
2018-03-24T14:01:02.409Z,10.33
2018-03-24T14:03:31.598Z,8.97
2018-03-24T14:05:58.792Z,8.83
2018-03-24T14:08:29.708Z,9.97
2018-03-24T14:10:56.912Z,9.53
2018-03-24T14:13:24.155Z,9.80
2018-03-24T14:15:51.350Z,8.43
2018-03-24T14:18:18.555Z,11.30
2018-03-24T14:20:45.765Z,10.37
2018-03-24T14:23:12.978Z,10.20
2018-03-24T14:25:40.200Z,9.03
2018-03-24T14:28:07.389Z,8.60
2018-03-24T14:30:34.585Z,9.63
2018-03-24T14:33:01.807Z,9.53
2018-03-24T14:35:29.181Z,13.80
2018-03-24T14:37:56.404Z,8.87
2018-03-24T14:40:23.770Z,8.60
2018-03-24T14:42:50.963Z,11.13
2018-03-24T14:45:18.181Z,9.30
2018-03-24T14:47:45.387Z,8.80
2018-03-24T14:50:12.617Z,10.37
2018-03-24T14:52:39.832Z,10.47
2018-03-24T14:55:07.060Z,8.43
2018-03-24T14:57:34.454Z,15.30
2018-03-24T15:00:01.655Z,9.20
2018-03-24T15:02:28.872Z,7.80
2018-03-24T15:04:56.074Z,8.23
2018-03-24T15:07:23.283Z,8.53
2018-03-24T15:09:50.505Z,7.80
2018-03-24T15:12:17.710Z,9.90
2018-03-24T15:14:46.894Z,9.17
2018-03-24T15:17:14.096Z,11.63
2018-03-24T15:19:41.582Z,10.38
2018-03-24T15:22:08.818Z,10.23
2018-03-24T15:24:36.144Z,10.10
2018-03-24T15:27:03.362Z,10.23
2018-03-24T15:29:36.125Z,11.47
2018-03-24T15:32:09.014Z,10.20
2018-03-24T15:34:41.827Z,10.10
2018-03-24T15:37:09.050Z,11.03
2018-03-24T15:39:36.249Z,10.33
2018-03-24T15:42:03.513Z,10.40
2018-03-24T15:44:30.868Z,9.40
2018-03-24T15:46:59.020Z,9.10
2018-03-24T15:49:26.239Z,10.13
2018-03-24T15:51:53.437Z,10.63
2018-03-24T15:54:21.593Z,10.23
2018-03-24T15:56:48.827Z,12.70
2018-03-24T15:59:16.337Z,11.77
2018-03-24T16:01:43.561Z,11.27
2018-03-24T16:04:10.766Z,13.73
2018-03-24T16:06:37.979Z,15.30
2018-03-24T16:09:07.137Z,13.80
2018-03-24T16:11:34.346Z,15.63
2018-03-24T16:14:01.578Z,14.03
2018-03-24T16:16:28.790Z,15.20
2018-03-24T16:18:55.994Z,19.27
2018-03-24T16:21:23.267Z,15.57
2018-03-24T16:23:50.642Z,17.40
2018-03-24T16:26:17.860Z,16.20
2018-03-24T16:28:45.091Z,19.33
2018-03-24T16:31:12.302Z,17.27
2018-03-24T16:33:39.547Z,16.43
2018-03-24T16:36:06.757Z,18.10
2018-03-24T16:38:34.003Z,22.53
2018-03-24T16:41:01.217Z,19.77
2018-03-24T16:43:28.424Z,21.53
2018-03-24T16:45:55.731Z,21.10
2018-03-24T16:48:23.983Z,19.70
2018-03-24T16:50:51.447Z,24.50
2018-03-24T16:53:18.658Z,21.10
2018-03-24T16:55:45.889Z,22.10
2018-03-24T16:58:14.051Z,21.83
2018-03-24T17:00:41.273Z,22.87
2018-03-24T17:03:08.774Z,19.87
2018-03-24T17:05:36.300Z,20.90
2018-03-24T17:08:03.845Z,21.33
2018-03-24T17:10:31.361Z,21.02
2018-03-24T17:12:58.865Z,19.55
2018-03-24T17:15:26.380Z,21.67
2018-03-24T17:17:53.882Z,19.17
2018-03-24T17:20:21.393Z,22.33
2018-03-24T17:22:48.901Z,20.27
2018-03-24T17:25:16.423Z,26.58
2018-03-24T17:27:43.913Z,19.60
2018-03-24T17:30:11.427Z,19.60
2018-03-24T17:32:38.933Z,20.05
2018-03-24T17:35:06.426Z,20.02
2018-03-24T17:37:33.945Z,22.50
2018-03-24T17:40:01.436Z,20.17
2018-03-24T17:42:28.945Z,21.95
2018-03-24T17:44:56.429Z,21.62
2018-03-24T17:47:23.977Z,24.37
2018-03-24T17:49:51.497Z,22.27
2018-03-24T17:52:18.985Z,18.58
2018-03-24T17:54:46.500Z,22.62
2018-03-24T17:57:13.814Z,22.17
2018-03-24T17:59:42.229Z,23.48
2018-03-24T18:02:09.737Z,21.58
2018-03-24T18:04:37.229Z,18.35
2018-03-24T18:07:04.741Z,19.20
2018-03-24T18:09:32.230Z,28.23
2018-03-24T18:11:59.750Z,26.20
2018-03-24T18:14:27.242Z,22.55
2018-03-24T18:16:54.770Z,22.00
2018-03-24T18:19:22.260Z,18.17
2018-03-24T18:21:49.779Z,19.60
2018-03-24T18:24:17.261Z,17.42
2018-03-24T18:26:44.768Z,18.87
2018-03-24T18:29:12.262Z,30.25
2018-03-24T18:31:39.768Z,19.12
2018-03-24T18:34:09.454Z,23.58
2018-03-24T18:36:38.925Z,16.02
2018-03-24T18:39:06.422Z,20.40
2018-03-24T18:41:33.947Z,19.65
2018-03-24T18:44:01.439Z,18.60
2018-03-24T18:46:28.766Z,21.10
2018-03-24T18:48:56.076Z,22.02
2018-03-24T18:51:23.591Z,22.08
2018-03-24T18:53:51.090Z,24.50
2018-03-24T18:56:18.609Z,19.30
2018-03-24T18:58:45.865Z,22.87
2018-03-24T19:01:13.394Z,20.92
2018-03-24T19:03:40.889Z,19.12
2018-03-24T19:06:08.409Z,19.48
2018-03-24T19:08:35.901Z,22.27
2018-03-24T19:11:04.407Z,20.20
2018-03-24T19:13:31.950Z,20.50
2018-03-24T19:16:01.557Z,19.55
2018-03-24T19:18:29.056Z,21.60
2018-03-24T19:20:56.581Z,19.87
2018-03-24T19:23:24.074Z,22.87
2018-03-24T19:25:51.584Z,22.98
2018-03-24T19:28:19.081Z,23.70
2018-03-24T19:30:47.587Z,20.25
2018-03-24T19:33:15.076Z,21.75
2018-03-24T19:35:42.589Z,28.00
2018-03-24T19:38:10.084Z,24.75
2018-03-24T19:40:37.599Z,23.17
2018-03-24T19:43:05.091Z,20.55
2018-03-24T19:45:32.609Z,24.45
2018-03-24T19:48:00.104Z,19.90
2018-03-24T19:50:27.631Z,21.98
2018-03-24T19:52:55.118Z,21.67
2018-03-24T19:55:24.407Z,20.45
2018-03-24T19:57:51.897Z,21.30
2018-03-24T20:00:19.223Z,24.17
2018-03-24T20:02:46.705Z,21.55
2018-03-24T20:05:14.231Z,26.58
2018-03-24T20:07:42.654Z,27.08
2018-03-24T20:10:11.158Z,21.45
2018-03-24T20:12:38.646Z,25.45
2018-03-24T20:15:06.140Z,26.70
2018-03-24T20:17:33.647Z,23.85
2018-03-24T20:20:01.137Z,22.65
2018-03-24T20:22:28.653Z,22.67
2018-03-24T20:24:57.093Z,23.48
2018-03-24T20:27:24.580Z,28.85
2018-03-24T20:29:54.062Z,24.10
2018-03-24T20:32:21.555Z,28.80
2018-03-24T20:34:49.071Z,23.00
2018-03-24T20:37:16.565Z,20.92
2018-03-24T20:39:44.075Z,25.10
2018-03-24T20:42:11.595Z,25.02
2018-03-24T20:44:39.083Z,25.37
2018-03-24T20:47:06.594Z,23.23
2018-03-24T20:49:34.072Z,32.47
2018-03-24T20:52:01.565Z,20.98
2018-03-24T20:54:29.078Z,22.60
2018-03-24T20:56:56.580Z,24.75
2018-03-24T20:59:24.097Z,19.33
2018-03-24T21:01:51.591Z,39.92
2018-03-24T21:04:19.129Z,37.15
2018-03-24T21:06:46.789Z,23.83
2018-03-24T21:09:14.270Z,38.22
2018-03-24T21:11:41.790Z,38.42
2018-03-24T21:14:09.292Z,65.87
2018-03-24T21:16:36.785Z,33.70
2018-03-24T21:19:04.287Z,33.05
2018-03-24T21:21:31.801Z,32.70
2018-03-24T21:23:59.291Z,25.80
2018-03-24T21:26:28.749Z,21.33
2018-03-24T21:28:56.258Z,24.45
2018-03-24T21:31:23.803Z,20.27
2018-03-24T21:33:51.458Z,25.30
2018-03-24T21:36:18.972Z,22.65
2018-03-24T21:38:46.490Z,20.08
2018-03-24T21:41:14.186Z,19.77
2018-03-24T21:43:41.697Z,22.80
2018-03-24T21:46:09.217Z,24.75
2018-03-24T21:48:36.710Z,21.17
2018-03-24T21:51:04.202Z,24.40
2018-03-24T21:53:32.561Z,24.60
2018-03-24T21:56:00.053Z,28.92
2018-03-24T21:58:27.565Z,21.45
2018-03-24T22:00:54.869Z,22.90
2018-03-24T22:03:22.385Z,26.83
2018-03-24T22:05:49.870Z,23.42
2018-03-24T22:08:17.389Z,23.30
2018-03-24T22:10:44.890Z,22.50
2018-03-24T22:13:12.399Z,21.92
2018-03-24T22:15:39.896Z,27.52
2018-03-24T22:18:07.409Z,23.40
2018-03-24T22:20:34.903Z,19.67
2018-03-24T22:23:02.413Z,21.80
2018-03-24T22:25:29.902Z,22.65
2018-03-24T22:27:57.417Z,23.92
2018-03-24T22:30:24.942Z,21.08
2018-03-24T22:32:52.434Z,22.00
2018-03-24T22:35:19.930Z,22.83
2018-03-24T22:37:47.446Z,19.35
2018-03-24T22:40:14.946Z,24.30
2018-03-24T22:42:42.464Z,25.48
2018-03-24T22:45:09.955Z,24.35
2018-03-24T22:47:38.402Z,22.90
2018-03-24T22:50:06.097Z,23.20
2018-03-24T22:52:34.558Z,20.92
2018-03-24T22:55:02.085Z,19.80
2018-03-24T22:57:29.574Z,22.73
2018-03-24T22:59:57.064Z,27.77
2018-03-24T23:02:25.390Z,25.10
2018-03-24T23:04:52.901Z,28.45
2018-03-24T23:07:20.408Z,21.35
2018-03-24T23:09:47.915Z,25.20
2018-03-24T23:12:15.426Z,24.00
2018-03-24T23:14:42.931Z,24.40
2018-03-24T23:17:10.463Z,26.12
2018-03-24T23:19:38.897Z,26.92
2018-03-24T23:22:06.416Z,25.70
2018-03-24T23:24:33.943Z,24.08
2018-03-24T23:27:01.437Z,22.25
2018-03-24T23:29:28.945Z,21.70
2018-03-24T23:31:56.471Z,22.87
2018-03-24T23:34:24.173Z,23.92
2018-03-24T23:36:51.689Z,23.62
2018-03-24T23:39:21.139Z,24.90
2018-03-24T23:41:48.620Z,24.48
2018-03-24T23:44:16.136Z,25.92
2018-03-24T23:46:43.634Z,19.05
2018-03-24T23:49:10.965Z,22.95
2018-03-24T23:51:38.449Z,19.25
2018-03-24T23:54:05.973Z,22.98
2018-03-24T23:56:33.485Z,20.48
2018-03-24T23:59:00.990Z,20.27
